Ana Sayfa
METAR-TAF:

METAR-TAF

Havaalanları :

Rodos Diagoras Uluslararası Havalimanı

Rodos, Yunanistan

Enlem: 36-24N, Boylam: 028-05E, yükseklik: 4 m

Güncel hava durumu gözlemi

Rapor saat 06:20 UTC de 34 dakika önce yapıldı.
Sakin rüzgar
Sıcaklık 13°C
Nem 100%
Basınç 1020 hPa
Görüş mesafesi 10 km veya daha fazla
1800 ft yükseklikte az bulutlu

METAR: LGRP 200620Z 00000KT 9999 FEW018 13/13 Q1020 NOSIG

Saat: 08:54 (06:54 UTC)

Tahmin

Rapor saat 05:00 UTC de 1 saat ve 54 dakika önce yapıldı.
Ayın 20'si saat 06 UTC'den ayın 21'si saat 06 UTC'ye kadar geçerli Tahmin
Rüzgar batıdan 9 kt
Görüş mesafesi 10 km veya daha fazla
2000 ft yükseklikte az bulutlu

TAF: LGRP 200500Z 2006/2106 26009KT 9999 FEW020

4.000'den fazla havaalanı için hava durumu gözlemleri ve tahminleri (METAR ve TAF raporları).

Kullanılabilir istasyonlar harita üzerinde sarı ve kırmızı noktalarla gösterilir.

İstasyonun adını görmek için fareyi noktanın üzerinde gezdirin.

Sonrasında hava gözlem ve tahminlerini görmek için tıklayın.

Haritayı değiştirmek için: yaklaştırmak için siyah artı işaretli yeşil düğmeye ve uzaklaştırmak için de eksi işaretli düğmeye hızla tıklayın; bitişik haritalar için yeşil okları kullanın.


METAR-TAF: